sensor_id;sensor_type;location;lat;lon;timestamp;P1;durP1;ratioP1;P2;durP2;ratioP2
73359;SDS011;63092;43.582;19.528;2024-02-26T00:01:42;28.60;;;13.35;;
73359;SDS011;63092;43.582;19.528;2024-02-26T00:04:11;29.33;;;14.20;;
73359;SDS011;63092;43.582;19.528;2024-02-26T00:06:40;39.88;;;20.85;;
73359;SDS011;63092;43.582;19.528;2024-02-26T00:09:06;37.17;;;18.60;;
73359;SDS011;63092;43.582;19.528;2024-02-26T00:11:33;33.45;;;17.42;;
73359;SDS011;63092;43.582;19.528;2024-02-26T00:13:59;32.40;;;15.77;;
73359;SDS011;63092;43.582;19.528;2024-02-26T00:16:24;29.42;;;12.88;;
73359;SDS011;63092;43.582;19.528;2024-02-26T00:18:50;30.75;;;15.43;;
73359;SDS011;63092;43.582;19.528;2024-02-26T00:21:16;25.77;;;13.75;;
73359;SDS011;63092;43.582;19.528;2024-02-26T00:23:42;29.08;;;14.85;;
73359;SDS011;63092;43.582;19.528;2024-02-26T00:26:08;24.42;;;13.60;;
73359;SDS011;63092;43.582;19.528;2024-02-26T00:28:35;24.85;;;13.02;;
73359;SDS011;63092;43.582;19.528;2024-02-26T00:31:01;25.88;;;13.07;;
73359;SDS011;63092;43.582;19.528;2024-02-26T00:33:27;30.80;;;16.15;;
73359;SDS011;63092;43.582;19.528;2024-02-26T00:35:53;31.08;;;15.50;;
73359;SDS011;63092;43.582;19.528;2024-02-26T00:38:19;41.47;;;22.13;;
73359;SDS011;63092;43.582;19.528;2024-02-26T00:40:45;46.03;;;24.63;;
73359;SDS011;63092;43.582;19.528;2024-02-26T00:43:11;36.50;;;21.83;;
73359;SDS011;63092;43.582;19.528;2024-02-26T00:45:36;52.97;;;26.48;;
73359;SDS011;63092;43.582;19.528;2024-02-26T00:48:02;38.55;;;22.27;;
73359;SDS011;63092;43.582;19.528;2024-02-26T00:50:33;43.40;;;25.23;;
73359;SDS011;63092;43.582;19.528;2024-02-26T00:52:59;38.28;;;22.45;;
73359;SDS011;63092;43.582;19.528;2024-02-26T00:55:26;53.85;;;24.25;;
73359;SDS011;63092;43.582;19.528;2024-02-26T00:57:52;31.20;;;17.60;;
73359;SDS011;63092;43.582;19.528;2024-02-26T01:00:18;27.98;;;16.15;;
73359;SDS011;63092;43.582;19.528;2024-02-26T01:02:44;25.63;;;14.27;;
73359;SDS011;63092;43.582;19.528;2024-02-26T01:05:13;33.38;;;15.07;;
73359;SDS011;63092;43.582;19.528;2024-02-26T01:07:40;39.45;;;18.95;;
73359;SDS011;63092;43.582;19.528;2024-02-26T01:10:06;56.47;;;25.67;;
73359;SDS011;63092;43.582;19.528;2024-02-26T01:12:32;46.38;;;21.50;;
73359;SDS011;63092;43.582;19.528;2024-02-26T01:14:59;38.25;;;20.15;;
73359;SDS011;63092;43.582;19.528;2024-02-26T01:17:26;24.85;;;14.05;;
73359;SDS011;63092;43.582;19.528;2024-02-26T01:19:51;24.38;;;12.98;;
73359;SDS011;63092;43.582;19.528;2024-02-26T01:22:18;23.45;;;13.65;;
73359;SDS011;63092;43.582;19.528;2024-02-26T01:24:44;27.58;;;14.07;;
73359;SDS011;63092;43.582;19.528;2024-02-26T01:27:10;33.28;;;16.48;;
73359;SDS011;63092;43.582;19.528;2024-02-26T01:29:36;33.85;;;15.68;;
73359;SDS011;63092;43.582;19.528;2024-02-26T01:32:02;28.33;;;16.25;;
73359;SDS011;63092;43.582;19.528;2024-02-26T01:34:30;29.55;;;15.15;;
73359;SDS011;63092;43.582;19.528;2024-02-26T01:36:55;23.27;;;13.07;;
73359;SDS011;63092;43.582;19.528;2024-02-26T01:39:21;21.73;;;12.20;;
73359;SDS011;63092;43.582;19.528;2024-02-26T01:41:47;25.42;;;13.43;;
73359;SDS011;63092;43.582;19.528;2024-02-26T01:44:13;24.90;;;14.05;;
73359;SDS011;63092;43.582;19.528;2024-02-26T01:46:39;22.25;;;13.25;;
73359;SDS011;63092;43.582;19.528;2024-02-26T01:49:05;34.00;;;18.30;;
73359;SDS011;63092;43.582;19.528;2024-02-26T01:51:32;32.20;;;17.58;;
73359;SDS011;63092;43.582;19.528;2024-02-26T01:53:59;28.58;;;14.50;;
73359;SDS011;63092;43.582;19.528;2024-02-26T01:56:26;25.88;;;13.65;;
73359;SDS011;63092;43.582;19.528;2024-02-26T01:58:55;22.98;;;12.60;;
73359;SDS011;63092;43.582;19.528;2024-02-26T02:01:22;35.75;;;19.70;;
73359;SDS011;63092;43.582;19.528;2024-02-26T02:03:52;51.75;;;27.00;;
73359;SDS011;63092;43.582;19.528;2024-02-26T02:06:18;39.30;;;19.40;;
73359;SDS011;63092;43.582;19.528;2024-02-26T02:08:44;24.90;;;13.43;;
73359;SDS011;63092;43.582;19.528;2024-02-26T02:11:11;22.73;;;11.95;;
73359;SDS011;63092;43.582;19.528;2024-02-26T02:13:37;22.05;;;12.30;;
73359;SDS011;63092;43.582;19.528;2024-02-26T02:16:03;22.00;;;12.13;;
73359;SDS011;63092;43.582;19.528;2024-02-26T02:18:29;22.05;;;12.13;;
73359;SDS011;63092;43.582;19.528;2024-02-26T02:20:55;22.67;;;12.57;;
73359;SDS011;63092;43.582;19.528;2024-02-26T02:23:24;25.08;;;13.77;;
73359;SDS011;63092;43.582;19.528;2024-02-26T02:25:50;25.35;;;14.13;;
73359;SDS011;63092;43.582;19.528;2024-02-26T02:28:16;28.13;;;14.43;;
73359;SDS011;63092;43.582;19.528;2024-02-26T02:30:42;26.33;;;14.05;;
73359;SDS011;63092;43.582;19.528;2024-02-26T02:33:08;24.58;;;14.50;;
73359;SDS011;63092;43.582;19.528;2024-02-26T02:35:34;24.90;;;15.00;;
73359;SDS011;63092;43.582;19.528;2024-02-26T02:38:00;26.50;;;15.07;;
73359;SDS011;63092;43.582;19.528;2024-02-26T02:40:25;27.52;;;14.40;;
73359;SDS011;63092;43.582;19.528;2024-02-26T02:42:51;27.90;;;15.45;;
73359;SDS011;63092;43.582;19.528;2024-02-26T02:45:17;23.65;;;13.70;;
73359;SDS011;63092;43.582;19.528;2024-02-26T02:47:43;26.52;;;14.57;;
73359;SDS011;63092;43.582;19.528;2024-02-26T02:50:08;25.00;;;15.23;;
73359;SDS011;63092;43.582;19.528;2024-02-26T02:52:34;30.58;;;15.13;;
73359;SDS011;63092;43.582;19.528;2024-02-26T02:55:00;24.60;;;15.05;;
73359;SDS011;63092;43.582;19.528;2024-02-26T02:57:26;28.95;;;16.83;;
73359;SDS011;63092;43.582;19.528;2024-02-26T02:59:52;33.20;;;17.25;;
73359;SDS011;63092;43.582;19.528;2024-02-26T03:02:18;29.02;;;15.75;;
73359;SDS011;63092;43.582;19.528;2024-02-26T03:04:44;23.73;;;13.55;;
73359;SDS011;63092;43.582;19.528;2024-02-26T03:07:09;25.73;;;13.05;;
73359;SDS011;63092;43.582;19.528;2024-02-26T03:09:35;36.22;;;16.67;;
73359;SDS011;63092;43.582;19.528;2024-02-26T03:12:01;22.60;;;12.85;;
73359;SDS011;63092;43.582;19.528;2024-02-26T03:14:26;25.73;;;12.90;;
73359;SDS011;63092;43.582;19.528;2024-02-26T03:16:55;23.80;;;12.65;;
73359;SDS011;63092;43.582;19.528;2024-02-26T03:19:21;22.45;;;12.07;;
73359;SDS011;63092;43.582;19.528;2024-02-26T03:21:47;24.63;;;11.82;;
73359;SDS011;63092;43.582;19.528;2024-02-26T03:24:13;25.25;;;13.07;;
73359;SDS011;63092;43.582;19.528;2024-02-26T03:26:39;37.97;;;18.40;;
73359;SDS011;63092;43.582;19.528;2024-02-26T03:29:05;25.02;;;14.82;;
73359;SDS011;63092;43.582;19.528;2024-02-26T03:31:31;25.52;;;13.02;;
73359;SDS011;63092;43.582;19.528;2024-02-26T03:33:57;20.48;;;11.95;;
73359;SDS011;63092;43.582;19.528;2024-02-26T03:36:22;22.00;;;12.35;;
73359;SDS011;63092;43.582;19.528;2024-02-26T03:38:48;26.73;;;13.30;;
73359;SDS011;63092;43.582;19.528;2024-02-26T03:41:14;20.88;;;12.77;;
73359;SDS011;63092;43.582;19.528;2024-02-26T03:43:40;21.58;;;11.38;;
73359;SDS011;63092;43.582;19.528;2024-02-26T03:46:09;24.80;;;12.68;;
73359;SDS011;63092;43.582;19.528;2024-02-26T03:48:39;21.38;;;12.23;;
73359;SDS011;63092;43.582;19.528;2024-02-26T03:53:34;22.15;;;13.23;;
73359;SDS011;63092;43.582;19.528;2024-02-26T03:56:02;20.30;;;12.13;;
73359;SDS011;63092;43.582;19.528;2024-02-26T04:00:55;26.38;;;12.90;;
73359;SDS011;63092;43.582;19.528;2024-02-26T04:03:21;25.15;;;12.52;;
73359;SDS011;63092;43.582;19.528;2024-02-26T04:05:46;20.17;;;10.90;;
73359;SDS011;63092;43.582;19.528;2024-02-26T04:08:13;23.88;;;11.40;;
73359;SDS011;63092;43.582;19.528;2024-02-26T04:10:38;17.17;;;10.27;;
73359;SDS011;63092;43.582;19.528;2024-02-26T04:13:04;23.63;;;11.45;;
73359;SDS011;63092;43.582;19.528;2024-02-26T04:15:32;22.38;;;11.57;;
73359;SDS011;63092;43.582;19.528;2024-02-26T04:17:57;21.42;;;10.48;;
73359;SDS011;63092;43.582;19.528;2024-02-26T04:20:23;16.58;;;10.50;;
73359;SDS011;63092;43.582;19.528;2024-02-26T04:22:49;20.75;;;10.68;;
73359;SDS011;63092;43.582;19.528;2024-02-26T04:25:14;20.40;;;10.38;;
73359;SDS011;63092;43.582;19.528;2024-02-26T04:27:40;17.65;;;9.68;;
73359;SDS011;63092;43.582;19.528;2024-02-26T04:30:07;24.60;;;10.75;;
73359;SDS011;63092;43.582;19.528;2024-02-26T04:32:33;18.95;;;10.23;;
73359;SDS011;63092;43.582;19.528;2024-02-26T04:35:02;18.23;;;12.02;;
73359;SDS011;63092;43.582;19.528;2024-02-26T04:37:28;23.40;;;19.17;;
73359;SDS011;63092;43.582;19.528;2024-02-26T04:40:00;23.67;;;15.88;;
73359;SDS011;63092;43.582;19.528;2024-02-26T04:42:26;29.30;;;19.75;;
73359;SDS011;63092;43.582;19.528;2024-02-26T04:44:52;27.10;;;18.67;;
73359;SDS011;63092;43.582;19.528;2024-02-26T04:47:19;32.08;;;16.45;;
73359;SDS011;63092;43.582;19.528;2024-02-26T04:49:47;28.58;;;17.42;;
73359;SDS011;63092;43.582;19.528;2024-02-26T04:52:14;31.77;;;23.80;;
73359;SDS011;63092;43.582;19.528;2024-02-26T04:54:40;31.08;;;23.10;;
73359;SDS011;63092;43.582;19.528;2024-02-26T04:57:05;24.50;;;17.77;;
73359;SDS011;63092;43.582;19.528;2024-02-26T04:59:31;29.65;;;18.55;;
73359;SDS011;63092;43.582;19.528;2024-02-26T05:01:57;27.02;;;13.88;;
73359;SDS011;63092;43.582;19.528;2024-02-26T05:04:22;24.35;;;12.85;;
73359;SDS011;63092;43.582;19.528;2024-02-26T05:06:48;22.38;;;11.77;;
73359;SDS011;63092;43.582;19.528;2024-02-26T05:09:14;24.00;;;13.70;;
73359;SDS011;63092;43.582;19.528;2024-02-26T05:11:40;24.77;;;12.77;;
73359;SDS011;63092;43.582;19.528;2024-02-26T05:14:06;20.48;;;13.77;;
73359;SDS011;63092;43.582;19.528;2024-02-26T05:16:31;27.90;;;11.57;;
73359;SDS011;63092;43.582;19.528;2024-02-26T05:18:57;22.30;;;12.05;;
73359;SDS011;63092;43.582;19.528;2024-02-26T05:21:23;18.55;;;11.35;;
73359;SDS011;63092;43.582;19.528;2024-02-26T05:23:48;19.92;;;11.70;;
73359;SDS011;63092;43.582;19.528;2024-02-26T05:26:23;18.65;;;10.85;;
73359;SDS011;63092;43.582;19.528;2024-02-26T05:28:49;17.10;;;11.77;;
73359;SDS011;63092;43.582;19.528;2024-02-26T05:31:15;23.30;;;12.80;;
73359;SDS011;63092;43.582;19.528;2024-02-26T05:33:42;23.50;;;13.30;;
73359;SDS011;63092;43.582;19.528;2024-02-26T05:36:08;19.63;;;10.68;;
73359;SDS011;63092;43.582;19.528;2024-02-26T05:38:33;21.08;;;11.93;;
73359;SDS011;63092;43.582;19.528;2024-02-26T05:40:59;20.45;;;10.32;;
73359;SDS011;63092;43.582;19.528;2024-02-26T05:43:25;31.17;;;16.23;;
73359;SDS011;63092;43.582;19.528;2024-02-26T05:45:51;21.42;;;12.40;;
73359;SDS011;63092;43.582;19.528;2024-02-26T05:48:18;25.10;;;14.57;;
73359;SDS011;63092;43.582;19.528;2024-02-26T05:50:44;37.55;;;17.15;;
73359;SDS011;63092;43.582;19.528;2024-02-26T05:53:10;21.83;;;12.48;;
73359;SDS011;63092;43.582;19.528;2024-02-26T05:55:36;19.67;;;11.80;;
73359;SDS011;63092;43.582;19.528;2024-02-26T05:58:02;19.95;;;11.20;;
73359;SDS011;63092;43.582;19.528;2024-02-26T06:00:28;37.63;;;15.68;;
73359;SDS011;63092;43.582;19.528;2024-02-26T06:02:54;20.27;;;11.85;;
73359;SDS011;63092;43.582;19.528;2024-02-26T06:05:20;21.95;;;11.70;;
73359;SDS011;63092;43.582;19.528;2024-02-26T06:07:45;24.17;;;13.02;;
73359;SDS011;63092;43.582;19.528;2024-02-26T06:10:11;27.42;;;15.80;;
73359;SDS011;63092;43.582;19.528;2024-02-26T06:12:39;25.15;;;15.45;;
73359;SDS011;63092;43.582;19.528;2024-02-26T06:15:05;26.90;;;15.13;;
73359;SDS011;63092;43.582;19.528;2024-02-26T06:17:31;29.10;;;16.55;;
73359;SDS011;63092;43.582;19.528;2024-02-26T06:19:57;24.80;;;12.75;;
73359;SDS011;63092;43.582;19.528;2024-02-26T06:22:24;21.92;;;11.55;;
73359;SDS011;63092;43.582;19.528;2024-02-26T06:24:50;21.35;;;12.13;;
73359;SDS011;63092;43.582;19.528;2024-02-26T06:27:16;23.25;;;13.10;;
73359;SDS011;63092;43.582;19.528;2024-02-26T06:29:41;24.90;;;14.10;;
73359;SDS011;63092;43.582;19.528;2024-02-26T06:32:07;24.27;;;15.25;;
73359;SDS011;63092;43.582;19.528;2024-02-26T06:34:33;37.47;;;20.92;;
73359;SDS011;63092;43.582;19.528;2024-02-26T06:36:58;37.95;;;21.48;;
73359;SDS011;63092;43.582;19.528;2024-02-26T06:39:24;38.35;;;25.00;;
73359;SDS011;63092;43.582;19.528;2024-02-26T06:41:50;40.70;;;22.50;;
73359;SDS011;63092;43.582;19.528;2024-02-26T06:44:15;48.75;;;24.88;;
73359;SDS011;63092;43.582;19.528;2024-02-26T06:46:41;44.70;;;23.23;;
73359;SDS011;63092;43.582;19.528;2024-02-26T06:49:07;32.38;;;20.38;;
73359;SDS011;63092;43.582;19.528;2024-02-26T06:51:32;38.85;;;19.75;;
73359;SDS011;63092;43.582;19.528;2024-02-26T06:53:58;35.15;;;19.00;;
73359;SDS011;63092;43.582;19.528;2024-02-26T06:56:24;32.50;;;20.63;;
73359;SDS011;63092;43.582;19.528;2024-02-26T06:58:49;43.17;;;24.35;;
73359;SDS011;63092;43.582;19.528;2024-02-26T07:01:15;38.08;;;22.38;;
73359;SDS011;63092;43.582;19.528;2024-02-26T07:03:41;43.03;;;26.08;;
73359;SDS011;63092;43.582;19.528;2024-02-26T07:06:07;50.30;;;29.38;;
73359;SDS011;63092;43.582;19.528;2024-02-26T07:08:33;54.08;;;32.40;;
73359;SDS011;63092;43.582;19.528;2024-02-26T07:10:59;45.78;;;27.38;;
73359;SDS011;63092;43.582;19.528;2024-02-26T07:13:25;48.50;;;28.98;;
73359;SDS011;63092;43.582;19.528;2024-02-26T07:15:51;42.47;;;24.38;;
73359;SDS011;63092;43.582;19.528;2024-02-26T07:18:16;42.95;;;24.95;;
73359;SDS011;63092;43.582;19.528;2024-02-26T07:20:42;44.90;;;22.77;;
73359;SDS011;63092;43.582;19.528;2024-02-26T07:23:08;44.50;;;23.92;;
73359;SDS011;63092;43.582;19.528;2024-02-26T07:25:33;47.38;;;28.27;;
73359;SDS011;63092;43.582;19.528;2024-02-26T07:27:59;52.22;;;31.65;;
73359;SDS011;63092;43.582;19.528;2024-02-26T07:30:25;51.63;;;29.75;;
73359;SDS011;63092;43.582;19.528;2024-02-26T07:32:51;44.05;;;26.52;;
73359;SDS011;63092;43.582;19.528;2024-02-26T07:35:16;52.33;;;28.98;;
73359;SDS011;63092;43.582;19.528;2024-02-26T07:37:43;40.45;;;23.20;;
73359;SDS011;63092;43.582;19.528;2024-02-26T07:40:09;36.72;;;21.25;;
73359;SDS011;63092;43.582;19.528;2024-02-26T07:42:35;32.50;;;18.15;;
73359;SDS011;63092;43.582;19.528;2024-02-26T07:45:01;28.92;;;18.30;;
73359;SDS011;63092;43.582;19.528;2024-02-26T07:47:27;32.47;;;17.27;;
73359;SDS011;63092;43.582;19.528;2024-02-26T07:49:53;28.13;;;17.25;;
73359;SDS011;63092;43.582;19.528;2024-02-26T07:52:19;25.98;;;14.65;;
73359;SDS011;63092;43.582;19.528;2024-02-26T07:54:44;32.33;;;18.27;;
73359;SDS011;63092;43.582;19.528;2024-02-26T07:57:10;32.40;;;18.40;;
73359;SDS011;63092;43.582;19.528;2024-02-26T07:59:36;25.83;;;15.55;;
73359;SDS011;63092;43.582;19.528;2024-02-26T08:02:01;26.92;;;17.35;;
73359;SDS011;63092;43.582;19.528;2024-02-26T08:04:28;24.20;;;16.02;;
73359;SDS011;63092;43.582;19.528;2024-02-26T08:06:54;24.85;;;14.05;;
73359;SDS011;63092;43.582;19.528;2024-02-26T08:09:20;21.73;;;13.02;;
73359;SDS011;63092;43.582;19.528;2024-02-26T08:11:46;30.10;;;16.98;;
73359;SDS011;63092;43.582;19.528;2024-02-26T08:14:11;25.10;;;16.08;;
73359;SDS011;63092;43.582;19.528;2024-02-26T08:16:37;23.17;;;14.20;;
73359;SDS011;63092;43.582;19.528;2024-02-26T08:19:03;23.40;;;14.50;;
73359;SDS011;63092;43.582;19.528;2024-02-26T08:21:29;22.35;;;13.88;;
73359;SDS011;63092;43.582;19.528;2024-02-26T08:23:55;27.65;;;17.10;;
73359;SDS011;63092;43.582;19.528;2024-02-26T08:26:20;42.20;;;24.65;;
73359;SDS011;63092;43.582;19.528;2024-02-26T08:28:47;23.67;;;15.07;;
73359;SDS011;63092;43.582;19.528;2024-02-26T08:31:14;18.15;;;10.35;;
73359;SDS011;63092;43.582;19.528;2024-02-26T08:33:40;18.38;;;11.68;;
73359;SDS011;63092;43.582;19.528;2024-02-26T08:36:05;18.50;;;11.32;;
73359;SDS011;63092;43.582;19.528;2024-02-26T08:38:32;24.65;;;17.10;;
73359;SDS011;63092;43.582;19.528;2024-02-26T08:40:59;26.05;;;13.15;;
73359;SDS011;63092;43.582;19.528;2024-02-26T08:43:27;17.63;;;10.38;;
73359;SDS011;63092;43.582;19.528;2024-02-26T08:45:53;21.90;;;11.05;;
73359;SDS011;63092;43.582;19.528;2024-02-26T08:48:18;16.63;;;9.38;;
73359;SDS011;63092;43.582;19.528;2024-02-26T08:50:44;21.42;;;12.00;;
73359;SDS011;63092;43.582;19.528;2024-02-26T08:53:10;19.90;;;10.98;;
73359;SDS011;63092;43.582;19.528;2024-02-26T08:55:36;24.30;;;14.18;;
73359;SDS011;63092;43.582;19.528;2024-02-26T08:58:01;23.92;;;14.20;;
73359;SDS011;63092;43.582;19.528;2024-02-26T09:00:27;24.15;;;15.18;;
73359;SDS011;63092;43.582;19.528;2024-02-26T09:02:53;23.55;;;14.10;;
73359;SDS011;63092;43.582;19.528;2024-02-26T09:05:19;20.48;;;12.68;;
73359;SDS011;63092;43.582;19.528;2024-02-26T09:07:44;14.80;;;8.18;;
73359;SDS011;63092;43.582;19.528;2024-02-26T09:10:11;12.30;;;7.20;;
73359;SDS011;63092;43.582;19.528;2024-02-26T09:12:37;14.18;;;8.95;;
73359;SDS011;63092;43.582;19.528;2024-02-26T09:15:05;15.25;;;8.57;;
73359;SDS011;63092;43.582;19.528;2024-02-26T09:17:32;11.98;;;7.30;;
73359;SDS011;63092;43.582;19.528;2024-02-26T09:19:58;8.50;;;5.45;;
73359;SDS011;63092;43.582;19.528;2024-02-26T09:22:24;10.55;;;5.60;;
73359;SDS011;63092;43.582;19.528;2024-02-26T09:24:57;13.95;;;7.28;;
73359;SDS011;63092;43.582;19.528;2024-02-26T09:27:22;10.27;;;6.00;;
73359;SDS011;63092;43.582;19.528;2024-02-26T09:29:48;8.65;;;5.72;;
73359;SDS011;63092;43.582;19.528;2024-02-26T09:32:14;11.13;;;5.82;;
73359;SDS011;63092;43.582;19.528;2024-02-26T09:34:40;8.25;;;5.30;;
73359;SDS011;63092;43.582;19.528;2024-02-26T09:37:06;7.80;;;4.78;;
73359;SDS011;63092;43.582;19.528;2024-02-26T09:39:32;9.52;;;5.72;;
73359;SDS011;63092;43.582;19.528;2024-02-26T09:42:05;9.38;;;4.72;;
73359;SDS011;63092;43.582;19.528;2024-02-26T09:44:35;10.18;;;5.22;;
73359;SDS011;63092;43.582;19.528;2024-02-26T09:47:04;8.43;;;5.53;;
73359;SDS011;63092;43.582;19.528;2024-02-26T09:49:31;8.68;;;5.57;;
73359;SDS011;63092;43.582;19.528;2024-02-26T09:51:57;12.98;;;8.10;;
73359;SDS011;63092;43.582;19.528;2024-02-26T09:54:24;5.97;;;3.90;;
73359;SDS011;63092;43.582;19.528;2024-02-26T09:56:53;6.90;;;4.03;;
73359;SDS011;63092;43.582;19.528;2024-02-26T09:59:27;7.25;;;4.35;;
73359;SDS011;63092;43.582;19.528;2024-02-26T10:01:55;8.85;;;5.40;;
73359;SDS011;63092;43.582;19.528;2024-02-26T10:04:23;7.63;;;4.97;;
73359;SDS011;63092;43.582;19.528;2024-02-26T10:06:51;9.20;;;5.72;;
73359;SDS011;63092;43.582;19.528;2024-02-26T10:09:17;11.40;;;5.38;;
73359;SDS011;63092;43.582;19.528;2024-02-26T10:11:44;9.38;;;4.78;;
73359;SDS011;63092;43.582;19.528;2024-02-26T10:14:11;8.80;;;5.38;;
73359;SDS011;63092;43.582;19.528;2024-02-26T10:16:37;8.63;;;5.50;;
73359;SDS011;63092;43.582;19.528;2024-02-26T10:19:03;10.73;;;5.72;;
73359;SDS011;63092;43.582;19.528;2024-02-26T10:21:29;8.57;;;4.70;;
73359;SDS011;63092;43.582;19.528;2024-02-26T10:23:54;9.73;;;5.72;;
73359;SDS011;63092;43.582;19.528;2024-02-26T10:26:20;10.05;;;5.38;;
73359;SDS011;63092;43.582;19.528;2024-02-26T10:28:46;8.65;;;5.10;;
73359;SDS011;63092;43.582;19.528;2024-02-26T10:31:13;9.60;;;5.65;;
73359;SDS011;63092;43.582;19.528;2024-02-26T10:33:40;8.07;;;5.18;;
73359;SDS011;63092;43.582;19.528;2024-02-26T10:36:07;8.48;;;4.97;;
73359;SDS011;63092;43.582;19.528;2024-02-26T10:38:34;12.40;;;5.72;;
73359;SDS011;63092;43.582;19.528;2024-02-26T10:41:04;8.98;;;5.03;;
73359;SDS011;63092;43.582;19.528;2024-02-26T10:43:31;8.88;;;4.20;;
73359;SDS011;63092;43.582;19.528;2024-02-26T10:45:57;8.05;;;4.60;;
73359;SDS011;63092;43.582;19.528;2024-02-26T10:48:23;5.78;;;3.55;;
73359;SDS011;63092;43.582;19.528;2024-02-26T10:50:49;7.25;;;4.30;;
73359;SDS011;63092;43.582;19.528;2024-02-26T10:53:21;5.50;;;3.45;;
73359;SDS011;63092;43.582;19.528;2024-02-26T10:55:48;7.28;;;4.70;;
73359;SDS011;63092;43.582;19.528;2024-02-26T10:58:18;7.05;;;4.50;;
73359;SDS011;63092;43.582;19.528;2024-02-26T11:00:45;7.45;;;3.97;;
73359;SDS011;63092;43.582;19.528;2024-02-26T11:03:13;12.93;;;7.43;;
73359;SDS011;63092;43.582;19.528;2024-02-26T11:05:42;5.78;;;4.00;;
73359;SDS011;63092;43.582;19.528;2024-02-26T11:08:09;10.80;;;5.13;;
73359;SDS011;63092;43.582;19.528;2024-02-26T11:10:36;8.27;;;5.20;;
73359;SDS011;63092;43.582;19.528;2024-02-26T11:13:03;6.10;;;3.30;;
73359;SDS011;63092;43.582;19.528;2024-02-26T11:15:31;7.65;;;4.00;;
73359;SDS011;63092;43.582;19.528;2024-02-26T11:17:58;10.43;;;4.38;;
73359;SDS011;63092;43.582;19.528;2024-02-26T11:20:27;9.15;;;4.85;;
73359;SDS011;63092;43.582;19.528;2024-02-26T11:22:54;7.20;;;4.10;;
73359;SDS011;63092;43.582;19.528;2024-02-26T11:25:20;8.05;;;4.13;;
73359;SDS011;63092;43.582;19.528;2024-02-26T11:27:51;6.55;;;3.15;;
73359;SDS011;63092;43.582;19.528;2024-02-26T11:30:19;8.80;;;4.95;;
73359;SDS011;63092;43.582;19.528;2024-02-26T11:32:47;10.05;;;4.90;;
73359;SDS011;63092;43.582;19.528;2024-02-26T11:35:13;10.65;;;4.60;;
73359;SDS011;63092;43.582;19.528;2024-02-26T11:37:50;6.67;;;3.20;;
73359;SDS011;63092;43.582;19.528;2024-02-26T11:40:18;5.13;;;3.25;;
73359;SDS011;63092;43.582;19.528;2024-02-26T11:42:44;7.78;;;3.95;;
73359;SDS011;63092;43.582;19.528;2024-02-26T11:48:04;6.30;;;3.83;;
73359;SDS011;63092;43.582;19.528;2024-02-26T11:50:57;6.90;;;2.88;;
73359;SDS011;63092;43.582;19.528;2024-02-26T11:56:11;11.68;;;5.00;;
73359;SDS011;63092;43.582;19.528;2024-02-26T11:58:47;9.30;;;4.75;;
73359;SDS011;63092;43.582;19.528;2024-02-26T12:04:01;5.53;;;2.92;;
73359;SDS011;63092;43.582;19.528;2024-02-26T12:06:29;7.47;;;4.13;;
73359;SDS011;63092;43.582;19.528;2024-02-26T12:08:55;6.03;;;3.28;;
73359;SDS011;63092;43.582;19.528;2024-02-26T12:11:21;7.40;;;3.13;;
73359;SDS011;63092;43.582;19.528;2024-02-26T12:13:48;19.77;;;5.07;;
73359;SDS011;63092;43.582;19.528;2024-02-26T12:19:06;7.30;;;4.20;;
73359;SDS011;63092;43.582;19.528;2024-02-26T12:21:34;7.22;;;3.20;;
73359;SDS011;63092;43.582;19.528;2024-02-26T12:24:11;7.85;;;3.63;;
73359;SDS011;63092;43.582;19.528;2024-02-26T12:26:38;18.33;;;9.85;;
73359;SDS011;63092;43.582;19.528;2024-02-26T12:29:04;17.58;;;8.32;;
73359;SDS011;63092;43.582;19.528;2024-02-26T12:31:30;8.88;;;5.28;;
73359;SDS011;63092;43.582;19.528;2024-02-26T12:34:02;9.48;;;5.60;;
73359;SDS011;63092;43.582;19.528;2024-02-26T12:36:28;7.65;;;4.05;;
73359;SDS011;63092;43.582;19.528;2024-02-26T12:38:54;8.48;;;4.57;;
73359;SDS011;63092;43.582;19.528;2024-02-26T12:41:21;8.80;;;4.00;;
73359;SDS011;63092;43.582;19.528;2024-02-26T12:43:47;6.13;;;3.70;;
73359;SDS011;63092;43.582;19.528;2024-02-26T12:46:14;7.00;;;3.30;;
73359;SDS011;63092;43.582;19.528;2024-02-26T12:48:44;9.35;;;4.20;;
73359;SDS011;63092;43.582;19.528;2024-02-26T12:51:11;8.98;;;4.75;;
73359;SDS011;63092;43.582;19.528;2024-02-26T12:53:39;8.20;;;4.43;;
73359;SDS011;63092;43.582;19.528;2024-02-26T12:56:06;12.07;;;4.50;;
73359;SDS011;63092;43.582;19.528;2024-02-26T12:58:34;10.68;;;3.97;;
73359;SDS011;63092;43.582;19.528;2024-02-26T13:01:00;8.10;;;3.22;;
73359;SDS011;63092;43.582;19.528;2024-02-26T13:03:26;9.20;;;3.95;;
73359;SDS011;63092;43.582;19.528;2024-02-26T13:05:53;12.45;;;4.63;;
73359;SDS011;63092;43.582;19.528;2024-02-26T13:08:19;6.40;;;3.25;;
73359;SDS011;63092;43.582;19.528;2024-02-26T13:10:46;13.00;;;5.13;;
73359;SDS011;63092;43.582;19.528;2024-02-26T13:13:14;10.02;;;3.40;;
73359;SDS011;63092;43.582;19.528;2024-02-26T13:15:43;7.28;;;4.13;;
73359;SDS011;63092;43.582;19.528;2024-02-26T13:18:13;9.32;;;3.85;;
73359;SDS011;63092;43.582;19.528;2024-02-26T13:20:40;9.43;;;3.95;;
73359;SDS011;63092;43.582;19.528;2024-02-26T13:23:07;10.85;;;4.35;;
73359;SDS011;63092;43.582;19.528;2024-02-26T13:25:36;13.15;;;4.43;;
73359;SDS011;63092;43.582;19.528;2024-02-26T13:30:55;14.68;;;3.97;;
73359;SDS011;63092;43.582;19.528;2024-02-26T13:33:22;9.10;;;3.90;;
73359;SDS011;63092;43.582;19.528;2024-02-26T13:35:48;8.18;;;3.75;;
73359;SDS011;63092;43.582;19.528;2024-02-26T13:38:14;9.20;;;4.25;;
73359;SDS011;63092;43.582;19.528;2024-02-26T13:40:40;9.25;;;4.25;;
73359;SDS011;63092;43.582;19.528;2024-02-26T13:43:06;14.30;;;5.50;;
73359;SDS011;63092;43.582;19.528;2024-02-26T13:45:35;13.55;;;6.10;;
73359;SDS011;63092;43.582;19.528;2024-02-26T13:48:03;11.27;;;5.22;;
73359;SDS011;63092;43.582;19.528;2024-02-26T13:50:30;12.98;;;6.32;;
73359;SDS011;63092;43.582;19.528;2024-02-26T13:52:56;14.25;;;7.35;;
73359;SDS011;63092;43.582;19.528;2024-02-26T13:55:23;20.60;;;5.45;;
73359;SDS011;63092;43.582;19.528;2024-02-26T13:57:53;11.45;;;5.90;;
73359;SDS011;63092;43.582;19.528;2024-02-26T14:00:20;12.75;;;4.57;;
73359;SDS011;63092;43.582;19.528;2024-02-26T14:02:46;9.82;;;4.07;;
73359;SDS011;63092;43.582;19.528;2024-02-26T14:05:11;8.70;;;3.40;;
73359;SDS011;63092;43.582;19.528;2024-02-26T14:07:38;8.77;;;3.50;;
73359;SDS011;63092;43.582;19.528;2024-02-26T14:10:04;9.77;;;5.47;;
73359;SDS011;63092;43.582;19.528;2024-02-26T14:12:31;10.32;;;5.22;;
73359;SDS011;63092;43.582;19.528;2024-02-26T14:14:56;12.63;;;4.95;;
73359;SDS011;63092;43.582;19.528;2024-02-26T14:17:25;8.32;;;3.50;;
73359;SDS011;63092;43.582;19.528;2024-02-26T14:19:51;9.60;;;3.88;;
73359;SDS011;63092;43.582;19.528;2024-02-26T14:22:17;7.15;;;3.08;;
73359;SDS011;63092;43.582;19.528;2024-02-26T14:24:43;11.63;;;4.20;;
73359;SDS011;63092;43.582;19.528;2024-02-26T14:27:09;11.63;;;4.70;;
73359;SDS011;63092;43.582;19.528;2024-02-26T14:29:40;8.88;;;3.80;;
73359;SDS011;63092;43.582;19.528;2024-02-26T14:32:07;11.68;;;4.97;;